Time;durP1;ratioP1;P1;durP2;ratioP2;P2;SDS_P1;SDS_P2;PMS_P1;PMS_P2;Temp;Humidity;BMP_temperature;BMP_pressure;BME280_temperature;BME280_humidity;BME280_pressure;Samples;Min_cycle;Max_cycle;Signal;HPM_P1;HPM_P2
2023/08/16 00:01:46;;;;;;;8.13;3.08;;;;;;;-144.73;100.00;54391.28;4981856;28;20034;-72
2023/08/16 00:04:12;;;;;;;8.57;2.50;;;;;;;-144.73;100.00;54452.84;4986086;28;20073;-72
2023/08/16 00:06:41;;;;;;;7.50;1.88;;;;;;;-144.73;100.00;54407.69;4988032;28;20106;-72
2023/08/16 00:09:07;;;;;;;12.80;2.60;;;;;;;-144.73;100.00;54383.06;4978597;28;20074;-72
2023/08/16 00:11:32;;;;;;;9.75;2.92;;;;;;;-144.73;100.00;54448.75;4979614;28;20030;-72
2023/08/16 00:13:57;;;;;;;6.57;2.60;;;;;;;-144.73;100.00;54420.00;4988123;28;20038;-72
2023/08/16 00:16:23;;;;;;;6.75;2.30;;;;;;;-144.73;100.00;54415.91;4986116;28;20026;-72
2023/08/16 00:18:48;;;;;;;6.22;2.35;;;;;;;-144.73;100.00;54399.50;4975031;28;20436;-73
2023/08/16 00:21:13;;;;;;;10.10;2.70;;;;;;;-144.73;100.00;54436.44;5002066;28;20046;-72
2023/08/16 00:23:39;;;;;;;10.82;3.15;;;;;;;-144.73;100.00;54395.38;5003402;28;20028;-72
2023/08/16 00:26:04;;;;;;;8.90;2.70;;;;;;;-144.73;100.00;54407.69;4991139;28;20026;-72
2023/08/16 00:28:29;;;;;;;7.30;2.70;;;;;;;-144.73;100.00;54378.97;4999649;28;20032;-72
2023/08/16 00:30:55;;;;;;;9.63;2.53;;;;;;;-144.73;100.00;54407.69;4999739;28;20045;-72
2023/08/16 00:33:21;;;;;;;10.88;3.10;;;;;;;-144.73;100.00;54452.84;4992182;28;20046;-73
2023/08/16 00:35:47;;;;;;;12.48;3.65;;;;;;;-144.73;100.00;54415.91;5000129;28;20039;-72
2023/08/16 00:38:12;;;;;;;8.52;2.33;;;;;;;-144.73;100.00;54395.38;4999213;28;20034;-72
2023/08/16 00:40:37;;;;;;;7.78;2.35;;;;;;;-144.73;100.00;54420.00;5005267;28;20058;-72
2023/08/16 00:43:03;;;;;;;14.10;2.55;;;;;;;-144.73;100.00;54434.38;5011544;28;20026;-72
2023/08/16 00:45:29;;;;;;;6.30;2.30;;;;;;;-144.73;100.00;54452.84;4981533;28;20031;-72
2023/08/16 00:47:55;;;;;;;10.13;2.60;;;;;;;-144.73;100.00;54415.91;4980348;28;20034;-73
2023/08/16 00:50:23;;;;;;;9.73;2.80;;;;;;;-144.73;100.00;54407.69;4976960;28;20113;-72
2023/08/16 00:52:49;;;;;;;10.32;2.72;;;;;;;-144.73;100.00;54399.50;4974475;28;20026;-73
2023/08/16 00:55:15;;;;;;;8.65;2.50;;;;;;;-144.73;100.00;54420.00;4971556;28;20375;-72
2023/08/16 00:57:41;;;;;;;19.40;3.03;;;;;;;-144.73;100.00;54465.16;4973203;28;20023;-72
2023/08/16 01:00:07;;;;;;;8.05;2.60;;;;;;;-144.73;100.00;54436.44;4971866;28;20027;-72
2023/08/16 01:02:32;;;;;;;11.45;2.90;;;;;;;-144.73;100.00;54440.53;4974339;28;20037;-72
2023/08/16 01:04:58;;;;;;;9.63;3.00;;;;;;;-144.73;100.00;54420.00;4971044;28;20046;-73
2023/08/16 01:07:23;;;;;;;11.55;2.88;;;;;;;-144.73;100.00;54409.75;4971062;28;20031;-72
2023/08/16 01:09:49;;;;;;;8.73;2.92;;;;;;;-144.73;100.00;54448.75;4970851;28;20174;-72
2023/08/16 01:12:43;;;;;;;8.85;2.65;;;;;;;-144.73;100.00;54420.00;4985441;28;20054;-72
2023/08/16 01:15:15;;;;;;;11.20;3.45;;;;;;;-144.73;100.00;54493.91;4977712;28;20113;-73
2023/08/16 01:17:42;;;;;;;13.88;3.50;;;;;;;-144.73;100.00;54422.06;4986829;28;20030;-72
2023/08/16 01:20:10;;;;;;;11.25;3.25;;;;;;;-144.73;100.00;54432.31;4981133;28;20034;-72
2023/08/16 01:22:58;;;;;;;8.55;2.72;;;;;;;-144.73;100.00;54432.31;4989382;28;20036;-72
2023/08/16 01:25:45;;;;;;;18.15;3.50;;;;;;;-144.73;100.00;54432.31;4980994;28;20034;-72
2023/08/16 01:28:10;;;;;;;9.20;2.80;;;;;;;-144.73;100.00;54428.22;4984021;28;20050;-72
2023/08/16 01:30:39;;;;;;;10.80;3.15;;;;;;;-144.73;100.00;54452.84;4976583;28;20061;-72
2023/08/16 01:33:09;;;;;;;8.65;3.17;;;;;;;-144.73;100.00;54395.38;4985055;28;20034;-72
2023/08/16 01:35:35;;;;;;;10.18;2.63;;;;;;;-144.73;100.00;54407.69;4976533;28;20038;-72
2023/08/16 01:38:02;;;;;;;10.70;2.83;;;;;;;-144.73;100.00;54424.13;4973222;28;20109;-72
2023/08/16 01:40:33;;;;;;;6.75;3.05;;;;;;;-144.73;100.00;54407.69;4976261;28;20098;-72
2023/08/16 01:43:00;;;;;;;6.27;2.40;;;;;;;-144.73;100.00;54456.97;4969869;28;20030;-73
2023/08/16 01:45:27;;;;;;;6.85;2.25;;;;;;;-144.73;100.00;54448.75;4965638;28;20262;-72
2023/08/16 01:47:53;;;;;;;13.98;2.70;;;;;;;-144.73;100.00;54461.06;4969476;28;20086;-72
2023/08/16 01:50:19;;;;;;;7.93;3.05;;;;;;;-144.73;100.00;54452.84;4975635;28;20046;-72
2023/08/16 01:52:46;;;;;;;16.65;3.17;;;;;;;-144.73;100.00;54424.13;4979460;28;20049;-72
2023/08/16 01:55:11;;;;;;;12.02;3.20;;;;;;;-144.73;100.00;54428.22;4981265;28;20042;-72
2023/08/16 01:57:37;;;;;;;7.65;2.72;;;;;;;-144.73;100.00;54424.13;4982781;28;20086;-72
2023/08/16 02:00:03;;;;;;;8.82;2.60;;;;;;;-144.73;100.00;54415.91;4969521;28;20110;-72
2023/08/16 02:02:28;;;;;;;10.52;3.10;;;;;;;-144.73;100.00;54436.44;4970782;28;20028;-73
2023/08/16 02:04:53;;;;;;;8.55;2.85;;;;;;;-144.73;100.00;54415.91;4975214;28;20261;-72
2023/08/16 02:07:19;;;;;;;9.70;3.28;;;;;;;-144.73;100.00;54420.00;4973276;28;20081;-72
2023/08/16 02:09:44;;;;;;;16.35;3.72;;;;;;;-144.73;100.00;54432.31;4984238;28;20030;-72
2023/08/16 02:12:09;;;;;;;10.02;3.22;;;;;;;-144.73;100.00;54428.22;4971470;28;20038;-72
2023/08/16 02:14:35;;;;;;;8.75;3.47;;;;;;;-144.73;100.00;54420.00;4970126;28;20055;-72
2023/08/16 02:17:00;;;;;;;14.93;3.28;;;;;;;-144.73;100.00;54436.44;4970221;28;20023;-72
2023/08/16 02:19:25;;;;;;;15.13;4.45;;;;;;;-144.73;100.00;54432.31;4969118;28;20105;-72
2023/08/16 02:21:51;;;;;;;8.32;3.05;;;;;;;-144.73;100.00;54411.81;4970553;28;20027;-72
2023/08/16 02:24:16;;;;;;;16.25;3.40;;;;;;;-144.73;100.00;54446.69;4966728;28;20031;-72
2023/08/16 02:26:41;;;;;;;13.07;4.00;;;;;;;-144.73;100.00;54428.22;4967491;28;20078;-72
2023/08/16 02:29:07;;;;;;;10.02;3.13;;;;;;;-144.73;100.00;54440.53;4968827;28;20018;-72
2023/08/16 02:31:32;;;;;;;20.40;3.72;;;;;;;-144.73;100.00;54452.84;4979781;28;20054;-72
2023/08/16 02:33:58;;;;;;;21.05;3.88;;;;;;;-144.73;100.00;54428.22;4966809;28;20393;-72
2023/08/16 02:36:23;;;;;;;14.38;3.72;;;;;;;-144.73;100.00;54407.69;4981318;28;20066;-72
2023/08/16 02:38:49;;;;;;;17.92;3.83;;;;;;;-144.73;100.00;54428.22;4976505;28;20107;-72
2023/08/16 02:41:14;;;;;;;11.88;3.25;;;;;;;-144.73;100.00;54432.31;4972876;28;20034;-73
2023/08/16 02:43:39;;;;;;;15.00;3.72;;;;;;;-144.73;100.00;54434.38;4978584;28;20030;-73
2023/08/16 02:46:05;;;;;;;13.15;3.80;;;;;;;-144.73;100.00;54407.69;4973259;28;20112;-73
2023/08/16 02:48:30;;;;;;;12.23;3.30;;;;;;;-144.73;100.00;54477.47;4976706;28;20539;-73
2023/08/16 02:50:56;;;;;;;13.60;3.45;;;;;;;-144.73;100.00;54399.50;4980140;28;20096;-72
2023/08/16 02:53:21;;;;;;;11.98;3.70;;;;;;;-144.73;100.00;54456.97;4977401;28;20023;-73
2023/08/16 02:55:46;;;;;;;13.02;4.40;;;;;;;-144.73;100.00;54391.28;4969209;28;20031;-73
2023/08/16 02:58:12;;;;;;;14.80;3.38;;;;;;;-144.73;100.00;54417.97;4974456;28;20038;-72
2023/08/16 03:00:38;;;;;;;15.63;4.25;;;;;;;-144.73;100.00;54415.91;4963858;28;20038;-72
2023/08/16 03:03:04;;;;;;;17.33;4.53;;;;;;;-144.73;100.00;54477.47;4968540;28;20107;-73
2023/08/16 03:05:29;;;;;;;15.45;4.38;;;;;;;-144.73;100.00;54417.97;4960902;28;20031;-73
2023/08/16 03:07:54;;;;;;;15.15;4.47;;;;;;;-144.73;100.00;54407.69;4968767;28;20023;-73
2023/08/16 03:10:20;;;;;;;10.07;4.03;;;;;;;-144.73;100.00;54420.00;4969120;28;20442;-72
2023/08/16 03:12:45;;;;;;;16.08;4.18;;;;;;;-144.73;100.00;54378.97;4969714;28;20019;-73
2023/08/16 03:15:11;;;;;;;19.85;4.80;;;;;;;-144.73;100.00;54465.16;4965401;28;20062;-72
2023/08/16 03:17:36;;;;;;;15.63;4.88;;;;;;;-144.73;100.00;54444.66;4969679;28;20033;-72
2023/08/16 03:20:01;;;;;;;16.67;5.05;;;;;;;-144.73;100.00;54469.28;4966554;28;20038;-73
2023/08/16 03:22:27;;;;;;;17.77;5.00;;;;;;;-144.73;100.00;54407.69;4979443;28;20034;-72
2023/08/16 03:24:52;;;;;;;27.27;6.07;;;;;;;-144.73;100.00;54444.66;4983382;28;20031;-72
2023/08/16 03:27:17;;;;;;;14.70;5.20;;;;;;;-144.73;100.00;54420.00;4981010;28;20045;-73
2023/08/16 03:29:43;;;;;;;19.75;4.82;;;;;;;-144.73;100.00;54420.00;4981560;28;20023;-73
2023/08/16 03:32:08;;;;;;;15.70;4.80;;;;;;;-144.73;100.00;54461.06;4975524;28;20029;-73
2023/08/16 03:34:34;;;;;;;24.20;5.25;;;;;;;-144.73;100.00;54407.69;4988894;28;20030;-72
2023/08/16 03:36:59;;;;;;;18.55;5.72;;;;;;;-144.73;100.00;54459.00;4980712;28;20019;-73
2023/08/16 03:39:24;;;;;;;20.52;5.15;;;;;;;-144.73;100.00;54452.84;4970510;28;20367;-73
2023/08/16 03:41:50;;;;;;;19.58;4.57;;;;;;;-144.73;100.00;54436.44;4975738;28;20089;-72
2023/08/16 03:44:15;;;;;;;12.55;4.38;;;;;;;-144.73;100.00;54440.53;4983569;28;20030;-72
2023/08/16 03:46:41;;;;;;;13.77;4.68;;;;;;;-144.73;100.00;54493.91;4980947;28;20486;-72
2023/08/16 03:49:06;;;;;;;19.80;5.03;;;;;;;-144.73;100.00;54426.16;4978875;28;20114;-73
2023/08/16 03:51:31;;;;;;;16.13;4.63;;;;;;;-144.73;100.00;54452.84;4976513;28;20030;-73
2023/08/16 03:53:57;;;;;;;11.05;4.40;;;;;;;-144.73;100.00;54461.06;4986669;28;20034;-73
2023/08/16 03:56:22;;;;;;;16.27;5.00;;;;;;;-144.73;100.00;54432.31;4980291;28;20021;-73
2023/08/16 03:58:47;;;;;;;16.42;4.88;;;;;;;-144.73;100.00;54473.38;4982536;28;20390;-72
2023/08/16 04:01:13;;;;;;;20.83;5.85;;;;;;;-144.73;100.00;54438.50;4965596;28;20047;-72
2023/08/16 04:03:38;;;;;;;15.45;5.32;;;;;;;-144.73;100.00;54498.00;4973762;28;20512;-73
2023/08/16 04:06:10;;;;;;;23.40;5.82;;;;;;;-144.73;100.00;54436.44;4975936;28;20094;-73
2023/08/16 04:08:36;;;;;;;11.73;4.93;;;;;;;-144.73;100.00;54475.44;4972583;28;20110;-73
2023/08/16 04:11:01;;;;;;;19.35;4.88;;;;;;;-144.73;100.00;54444.66;4976119;28;20110;-73
2023/08/16 04:13:26;;;;;;;14.13;5.68;;;;;;;-144.73;100.00;54432.31;4989438;28;20014;-73
2023/08/16 04:15:52;;;;;;;11.60;5.00;;;;;;;-144.73;100.00;54448.75;4977531;28;20023;-73
2023/08/16 04:18:17;;;;;;;18.27;5.82;;;;;;;-144.73;100.00;54444.66;4975960;28;20026;-73
2023/08/16 04:20:43;;;;;;;19.52;5.97;;;;;;;-144.73;100.00;54415.91;4970610;28;20494;-74
2023/08/16 04:23:08;;;;;;;19.65;6.65;;;;;;;-144.73;100.00;54473.38;4963926;28;20031;-73
2023/08/16 04:25:33;;;;;;;29.13;8.38;;;;;;;-144.73;100.00;54440.53;4967456;28;20105;-73
2023/08/16 04:27:59;;;;;;;24.88;8.20;;;;;;;-144.73;100.00;54469.28;4967868;28;20022;-72
2023/08/16 04:30:24;;;;;;;25.73;9.93;;;;;;;-144.73;100.00;54432.31;4975035;28;20077;-73
2023/08/16 04:32:49;;;;;;;26.95;9.90;;;;;;;-144.73;100.00;54411.81;4971465;28;20026;-73
2023/08/16 04:35:15;;;;;;;42.92;10.88;;;;;;;-144.73;100.00;54467.22;4975408;28;20042;-73
2023/08/16 04:37:40;;;;;;;26.88;8.90;;;;;;;-144.73;100.00;54473.38;4971758;28;20031;-73
2023/08/16 04:40:06;;;;;;;22.13;9.43;;;;;;;-144.73;100.00;54444.66;4976459;28;20050;-73
2023/08/16 04:42:34;;;;;;;40.60;11.00;;;;;;;-144.73;100.00;54444.66;4971941;28;20069;-73
2023/08/16 04:45:00;;;;;;;21.30;8.90;;;;;;;-144.73;100.00;54452.84;4985726;28;20034;-73
2023/08/16 04:47:25;;;;;;;24.02;9.40;;;;;;;-144.73;100.00;54436.44;4977750;28;20101;-73
2023/08/16 04:49:51;;;;;;;25.80;8.82;;;;;;;-144.73;100.00;54461.06;4983096;28;20512;-73
2023/08/16 04:52:16;;;;;;;26.50;9.45;;;;;;;-144.73;100.00;54483.66;4971012;28;20105;-72
2023/08/16 04:54:41;;;;;;;34.83;16.83;;;;;;;-144.73;100.00;54440.53;4976851;28;20035;-73
2023/08/16 04:57:07;;;;;;;23.95;10.48;;;;;;;-144.73;100.00;54428.22;4974798;28;20022;-73
2023/08/16 04:59:32;;;;;;;25.10;9.57;;;;;;;-144.73;100.00;54440.53;4976935;28;20134;-73
2023/08/16 05:01:58;;;;;;;22.55;9.57;;;;;;;-144.73;100.00;54465.16;4983148;28;20045;-73
2023/08/16 05:04:23;;;;;;;38.53;13.45;;;;;;;-144.73;100.00;54461.06;4977550;28;20061;-73
2023/08/16 05:06:48;;;;;;;25.27;10.85;;;;;;;-144.73;100.00;54440.53;4978859;28;20049;-73
2023/08/16 05:09:14;;;;;;;25.02;10.40;;;;;;;-144.73;100.00;54465.16;4977300;28;20099;-74
2023/08/16 05:11:39;;;;;;;27.58;10.05;;;;;;;-144.73;100.00;54465.16;4972580;28;20082;-73
2023/08/16 05:14:04;;;;;;;28.00;10.32;;;;;;;-144.73;100.00;54461.06;4967258;28;20038;-72
2023/08/16 05:16:29;;;;;;;21.83;9.57;;;;;;;-144.73;100.00;54473.38;4971231;28;20103;-72
2023/08/16 05:18:57;;;;;;;29.42;12.20;;;;;;;-144.73;100.00;54461.06;4966828;28;20026;-72
2023/08/16 05:21:23;;;;;;;27.90;10.75;;;;;;;-144.73;100.00;54436.44;4967177;28;20031;-72
2023/08/16 05:23:48;;;;;;;18.55;10.57;;;;;;;-144.73;100.00;54438.50;4983589;28;20034;-73
2023/08/16 05:26:17;;;;;;;30.05;11.25;;;;;;;-144.73;100.00;54489.81;4971476;28;20510;-72
2023/08/16 05:28:42;;;;;;;37.45;10.77;;;;;;;-144.73;100.00;54473.38;4970566;28;20041;-72
2023/08/16 05:31:11;;;;;;;22.88;10.48;;;;;;;-144.73;100.00;54473.38;4975752;28;20523;-73
2023/08/16 05:33:37;;;;;;;29.13;10.98;;;;;;;-144.73;100.00;54461.06;4976610;28;20387;-72
2023/08/16 05:36:04;;;;;;;22.50;9.82;;;;;;;-144.73;100.00;54452.84;4973436;28;20039;-73
2023/08/16 05:38:29;;;;;;;20.15;9.77;;;;;;;-144.73;100.00;54424.13;4983189;28;20024;-72
2023/08/16 05:40:54;;;;;;;21.20;9.82;;;;;;;-144.73;100.00;54444.66;4975454;28;20030;-73
2023/08/16 05:43:20;;;;;;;35.95;13.45;;;;;;;-144.73;100.00;54432.31;4972497;28;20027;-72
2023/08/16 05:45:45;;;;;;;26.00;10.23;;;;;;;-144.73;100.00;54415.91;4969857;28;20033;-73
2023/08/16 05:48:11;;;;;;;29.30;9.90;;;;;;;-144.73;100.00;54444.66;4974165;28;20081;-73
2023/08/16 05:50:36;;;;;;;25.55;10.43;;;;;;;-144.73;100.00;54407.69;4969947;28;20101;-73
2023/08/16 05:53:03;;;;;;;24.05;10.85;;;;;;;-144.73;100.00;54469.28;4972636;28;20031;-73
2023/08/16 05:55:28;;;;;;;20.95;9.98;;;;;;;-144.73;100.00;54444.66;4968768;28;20038;-73
2023/08/16 05:57:54;;;;;;;27.08;10.38;;;;;;;-144.73;100.00;54502.13;4970069;28;20371;-73
2023/08/16 06:00:19;;;;;;;32.08;12.00;;;;;;;-144.73;100.00;54469.28;4969870;28;20039;-74
2023/08/16 06:02:45;;;;;;;18.60;8.65;;;;;;;-144.73;100.00;54428.22;4975070;28;20026;-74
2023/08/16 06:05:10;;;;;;;39.30;9.73;;;;;;;-144.73;100.00;54440.53;4978729;28;20031;-73
2023/08/16 06:07:36;;;;;;;26.98;8.45;;;;;;;-144.73;100.00;54452.84;4979606;28;20026;-74
2023/08/16 06:10:01;;;;;;;24.45;9.13;;;;;;;-144.73;100.00;54422.06;4970246;28;20037;-73
2023/08/16 06:12:27;;;;;;;28.08;8.55;;;;;;;-144.73;100.00;54489.81;4975502;28;20034;-73
2023/08/16 06:14:52;;;;;;;20.92;9.70;;;;;;;-144.73;100.00;54477.47;4978140;28;20034;-73
2023/08/16 06:17:17;;;;;;;22.05;8.07;;;;;;;-144.73;100.00;54469.28;4975134;28;20029;-73
2023/08/16 06:19:43;;;;;;;25.70;9.68;;;;;;;-144.73;100.00;54444.66;4971226;28;20035;-73
2023/08/16 06:22:08;;;;;;;27.65;9.68;;;;;;;-144.73;100.00;54407.69;4979997;28;20021;-74
2023/08/16 06:24:35;;;;;;;16.88;6.22;;;;;;;-144.73;100.00;54481.59;4975756;28;20031;-74
2023/08/16 06:27:01;;;;;;;24.20;6.82;;;;;;;-144.73;100.00;54436.44;4975227;28;20034;-73
2023/08/16 06:29:26;;;;;;;23.27;7.00;;;;;;;-144.73;100.00;54438.50;4976913;28;20042;-73
2023/08/16 06:31:54;;;;;;;20.73;5.30;;;;;;;-144.73;100.00;54428.22;4977504;28;20355;-73
2023/08/16 06:34:20;;;;;;;13.60;4.40;;;;;;;-144.73;100.00;54432.31;4977069;28;20058;-73
2023/08/16 06:36:46;;;;;;;19.52;6.03;;;;;;;-144.73;100.00;54432.31;4973165;28;20026;-73
2023/08/16 06:39:12;;;;;;;11.75;2.92;;;;;;;-144.73;100.00;54424.13;4975919;28;20038;-75
2023/08/16 06:41:37;;;;;;;10.13;3.20;;;;;;;-144.73;100.00;54420.00;4985429;28;20076;-74
2023/08/16 06:44:03;;;;;;;12.52;2.70;;;;;;;-144.73;100.00;54461.06;4975292;28;20090;-74
2023/08/16 06:46:28;;;;;;;10.85;2.90;;;;;;;-144.73;100.00;54489.81;4982838;28;20019;-73
2023/08/16 06:48:54;;;;;;;11.27;3.00;;;;;;;-144.73;100.00;54461.06;4983555;28;20068;-74
2023/08/16 06:51:19;;;;;;;13.15;2.92;;;;;;;-144.73;100.00;54459.00;4977390;28;20034;-73
2023/08/16 06:53:45;;;;;;;16.30;3.33;;;;;;;-144.73;100.00;54454.91;4980559;28;20022;-73
2023/08/16 06:56:11;;;;;;;18.15;3.63;;;;;;;-144.73;100.00;54448.75;4976190;28;20062;-73
2023/08/16 06:58:37;;;;;;;10.77;2.53;;;;;;;-144.73;100.00;54432.31;4976302;28;20062;-73
2023/08/16 07:01:02;;;;;;;14.00;2.83;;;;;;;-144.73;100.00;54448.75;4972707;28;20023;-74
2023/08/16 07:03:28;;;;;;;8.40;2.20;;;;;;;-144.73;100.00;54434.38;4972176;28;20023;-74
2023/08/16 07:05:54;;;;;;;11.18;2.35;;;;;;;-144.73;100.00;54440.53;4969678;28;20106;-73
2023/08/16 07:08:20;;;;;;;9.70;2.08;;;;;;;-144.73;100.00;54444.66;4971242;28;20031;-74
2023/08/16 07:10:45;;;;;;;21.08;3.65;;;;;;;-144.73;100.00;54424.13;4969523;28;20055;-74
2023/08/16 07:13:11;;;;;;;11.77;2.70;;;;;;;-144.73;100.00;54432.31;4971915;28;20030;-74
2023/08/16 07:15:36;;;;;;;12.23;3.47;;;;;;;-144.73;100.00;54426.16;4970668;28;20446;-74
2023/08/16 07:18:02;;;;;;;9.40;2.10;;;;;;;-144.73;100.00;54444.66;4970343;28;20026;-74
2023/08/16 07:20:27;;;;;;;12.30;2.72;;;;;;;-144.73;100.00;54424.13;4971054;28;20042;-74
2023/08/16 07:22:53;;;;;;;12.43;2.38;;;;;;;-144.73;100.00;54444.66;4973779;28;20086;-74
2023/08/16 07:25:18;;;;;;;12.20;2.95;;;;;;;-144.73;100.00;54417.97;4971364;28;20031;-74
2023/08/16 07:27:44;;;;;;;11.32;2.55;;;;;;;-144.73;100.00;54407.69;4971300;28;20026;-75
2023/08/16 07:30:09;;;;;;;14.35;2.45;;;;;;;-144.73;100.00;54415.91;4970484;28;20034;-75
2023/08/16 07:32:35;;;;;;;13.75;2.72;;;;;;;-144.73;100.00;54395.38;4971750;28;20501;-74
2023/08/16 07:35:00;;;;;;;13.07;2.30;;;;;;;-144.73;100.00;54426.16;4971280;28;20038;-74
2023/08/16 07:37:31;;;;;;;13.77;2.35;;;;;;;-144.73;100.00;54415.91;4973441;28;20037;-74
2023/08/16 07:39:58;;;;;;;12.55;2.33;;;;;;;-144.73;100.00;54370.75;4973727;28;20130;-75
2023/08/16 07:42:24;;;;;;;9.98;2.50;;;;;;;-144.73;100.00;54399.50;4987055;28;20030;-74
2023/08/16 07:44:50;;;;;;;14.55;2.92;;;;;;;-144.73;100.00;54391.28;4988359;28;20057;-74
2023/08/16 07:47:15;;;;;;;17.33;3.00;;;;;;;-144.73;100.00;54473.38;4989638;28;20038;-75
2023/08/16 07:49:41;;;;;;;12.38;2.60;;;;;;;-144.73;100.00;54374.84;4976710;28;20054;-74
2023/08/16 07:52:07;;;;;;;7.85;2.63;;;;;;;-144.73;100.00;54420.00;4973110;28;20022;-74
2023/08/16 07:54:32;;;;;;;8.85;1.83;;;;;;;-144.73;100.00;54385.13;4971040;28;20119;-75
2023/08/16 07:56:57;;;;;;;8.88;2.50;;;;;;;-144.73;100.00;54415.91;4971385;28;20034;-75
2023/08/16 07:59:23;;;;;;;11.95;2.28;;;;;;;-144.73;100.00;54395.38;4972036;28;20034;-74
2023/08/16 08:01:49;;;;;;;9.95;2.17;;;;;;;-144.73;100.00;54399.50;4971050;28;20026;-75
2023/08/16 08:04:14;;;;;;;10.95;2.40;;;;;;;-144.73;100.00;54415.91;4975190;28;20062;-75
2023/08/16 08:06:40;;;;;;;11.07;2.28;;;;;;;-144.73;100.00;54428.22;4972284;28;20115;-75
2023/08/16 08:09:05;;;;;;;10.00;2.28;;;;;;;-144.73;100.00;54417.97;4973397;28;20105;-75
2023/08/16 08:11:30;;;;;;;11.70;2.10;;;;;;;-144.73;100.00;54407.69;4970808;28;20065;-74
2023/08/16 08:13:57;;;;;;;11.00;2.60;;;;;;;-144.73;100.00;54409.75;4972073;28;20144;-73
2023/08/16 08:16:23;;;;;;;9.48;2.10;;;;;;;-144.73;100.00;54376.91;4972780;28;20084;-73
2023/08/16 08:18:48;;;;;;;10.02;1.85;;;;;;;-144.73;100.00;54481.59;4973374;28;20026;-74
2023/08/16 08:21:14;;;;;;;14.20;2.55;;;;;;;-144.73;100.00;54399.50;4991038;28;20046;-74
2023/08/16 08:23:39;;;;;;;15.18;3.00;;;;;;;-144.73;100.00;54420.00;4989191;28;20034;-73
2023/08/16 08:26:06;;;;;;;10.25;2.42;;;;;;;-144.73;100.00;54395.38;4992527;28;20026;-73
2023/08/16 08:28:32;;;;;;;11.10;2.95;;;;;;;-144.73;100.00;54461.06;4991807;28;20032;-73
2023/08/16 08:31:01;;;;;;;15.38;3.00;;;;;;;-144.73;100.00;54411.81;4988415;28;20160;-73
2023/08/16 08:33:26;;;;;;;16.02;2.33;;;;;;;-144.73;100.00;54395.38;4993933;28;20022;-73
2023/08/16 08:35:52;;;;;;;11.27;2.70;;;;;;;-144.73;100.00;54407.69;4988486;28;20073;-73
2023/08/16 08:38:17;;;;;;;14.43;2.78;;;;;;;-144.73;100.00;54428.22;4990571;28;20052;-74
2023/08/16 08:40:42;;;;;;;7.38;1.85;;;;;;;-144.73;100.00;54413.84;4989894;28;20086;-73
2023/08/16 08:43:10;;;;;;;14.98;1.92;;;;;;;-144.73;100.00;54456.97;4992420;28;20053;-73
2023/08/16 08:45:35;;;;;;;10.60;3.45;;;;;;;-144.73;100.00;54407.69;4991146;28;20588;-73
2023/08/16 08:48:01;;;;;;;8.18;2.38;;;;;;;-144.73;100.00;54444.66;4991765;28;20026;-74
2023/08/16 08:50:28;;;;;;;7.25;2.13;;;;;;;-144.73;100.00;54383.06;4991023;28;20443;-75
2023/08/16 08:52:56;;;;;;;8.27;2.85;;;;;;;-144.73;100.00;54436.44;4989465;28;20485;-74
2023/08/16 08:55:25;;;;;;;12.35;2.97;;;;;;;-144.73;100.00;54397.44;4989931;28;20030;-74
2023/08/16 08:57:54;;;;;;;8.07;1.65;;;;;;;-144.73;100.00;54397.44;4989592;28;20038;-74
2023/08/16 09:00:20;;;;;;;14.43;2.75;;;;;;;-144.73;100.00;54399.50;4990345;28;20066;-73
2023/08/16 09:02:50;;;;;;;7.57;2.15;;;;;;;-144.73;100.00;54354.34;4990073;28;20113;-73
2023/08/16 09:05:18;;;;;;;13.85;2.80;;;;;;;-144.73;100.00;54407.69;4990366;28;20034;-73
2023/08/16 09:07:44;;;;;;;10.65;2.30;;;;;;;-144.73;100.00;54387.19;4990777;28;20042;-74
2023/08/16 09:10:11;;;;;;;16.65;1.98;;;;;;;-144.73;100.00;54391.28;4989526;28;20054;-74
2023/08/16 09:12:37;;;;;;;14.85;2.22;;;;;;;-144.73;100.00;54424.13;4990743;28;20042;-74
2023/08/16 09:15:03;;;;;;;12.13;2.28;;;;;;;-144.73;95.55;54393.34;4996660;28;20139;-74
2023/08/16 09:17:28;;;;;;;10.98;2.05;;;;;;;-144.73;95.95;54350.22;4970923;28;20026;-74
2023/08/16 09:19:54;;;;;;;9.32;2.63;;;;;;;-144.73;93.87;54346.13;4968493;28;20089;-74
2023/08/16 09:22:20;;;;;;;13.98;2.42;;;;;;;-144.73;99.62;54395.38;4970843;28;20081;-74
2023/08/16 09:24:45;;;;;;;10.80;2.88;;;;;;;-144.73;100.00;54387.19;4970524;28;20027;-74
2023/08/16 09:27:11;;;;;;;12.00;3.15;;;;;;;-144.73;98.74;54354.34;4969186;28;20030;-74
2023/08/16 09:29:40;;;;;;;15.50;2.35;;;;;;;-144.73;100.00;54370.75;4974796;28;20054;-74
2023/08/16 09:32:07;;;;;;;7.93;2.60;;;;;;;-144.73;98.41;54391.28;4979890;28;20053;-74
2023/08/16 09:34:35;;;;;;;13.55;2.30;;;;;;;-144.73;96.54;54333.81;4976057;28;20052;-74
2023/08/16 09:37:02;;;;;;;9.48;2.20;;;;;;;-144.73;96.08;54358.44;4974606;28;20043;-74
2023/08/16 09:39:28;;;;;;;13.35;2.17;;;;;;;-144.73;92.53;54366.66;4977177;28;20041;-74
2023/08/16 09:41:53;;;;;;;7.55;2.20;;;;;;;-144.73;88.68;54354.34;4975670;28;20027;-74
2023/08/16 09:44:19;;;;;;;9.13;2.08;;;;;;;-144.73;88.33;54366.66;4972517;28;20042;-74
2023/08/16 09:46:45;;;;;;;7.00;1.90;;;;;;;-144.73;82.41;54362.53;4981278;28;20019;-74
2023/08/16 09:49:10;;;;;;;8.15;2.17;;;;;;;-144.73;82.15;54374.84;4982105;28;20057;-74
2023/08/16 09:51:40;;;;;;;9.18;2.25;;;;;;;-144.73;80.74;54348.19;4975844;28;20104;-74
2023/08/16 09:54:13;;;;;;;12.25;2.42;;;;;;;-144.73;74.60;54342.03;4971602;28;20027;-74
2023/08/16 09:56:39;;;;;;;3.88;1.60;;;;;;;-144.73;77.21;54362.53;4982436;28;20117;-74
2023/08/16 09:59:07;;;;;;;11.13;2.00;;;;;;;-144.73;73.46;54333.81;4980575;28;20027;-74
2023/08/16 10:01:34;;;;;;;9.30;1.98;;;;;;;-144.73;72.63;54342.03;4984476;28;20054;-74
2023/08/16 10:04:01;;;;;;;5.75;1.73;;;;;;;-144.73;73.97;54350.22;4980728;28;20113;-74
2023/08/16 10:06:29;;;;;;;8.00;1.77;;;;;;;-144.73;73.91;54303.03;4981824;28;20022;-73
2023/08/16 10:08:55;;;;;;;10.50;2.47;;;;;;;-144.73;74.70;54335.88;4970994;28;20050;-74
2023/08/16 10:11:23;;;;;;;8.80;1.95;;;;;;;-144.73;72.43;54348.19;4972258;28;20034;-74
2023/08/16 10:13:49;;;;;;;7.82;2.00;;;;;;;-144.73;75.20;54325.59;4958618;28;20023;-73
2023/08/16 10:16:15;;;;;;;8.30;2.50;;;;;;;-144.73;77.17;54325.59;4970875;28;20015;-74
2023/08/16 10:18:42;;;;;;;8.23;2.30;;;;;;;-144.73;74.70;54337.91;4969859;28;20027;-73
2023/08/16 10:21:13;;;;;;;6.15;2.28;;;;;;;-144.73;77.67;54362.53;4963110;28;20091;-74
2023/08/16 10:23:40;;;;;;;6.50;2.22;;;;;;;-144.73;80.32;54325.59;4963838;28;20022;-73
2023/08/16 10:26:12;;;;;;;11.05;1.88;;;;;;;-144.73;76.37;54376.91;4957103;28;20034;-73
2023/08/16 10:28:38;;;;;;;;;;;;;;;-144.73;75.38;54346.13;4966000;28;20117;-73
2023/08/16 10:31:06;;;;;;;13.23;2.28;;;;;;;-144.73;77.12;54325.59;4979612;28;19949;-74
2023/08/16 10:33:36;;;;;;;10.07;2.70;;;;;;;-144.73;77.84;54335.88;4970049;28;20022;-74
2023/08/16 10:36:03;;;;;;;13.23;2.20;;;;;;;-144.73;73.42;54366.66;4981003;28;20027;-74
2023/08/16 10:38:40;;;;;;;3.95;1.70;;;;;;;-144.73;75.61;54321.50;4975260;28;20056;-74
2023/08/16 10:41:12;;;;;;;9.32;2.13;;;;;;;-144.73;77.76;54350.22;4966820;28;20081;-74
2023/08/16 10:43:38;;;;;;;9.38;2.25;;;;;;;-144.73;73.90;54383.06;4962332;28;20034;-74
2023/08/16 10:46:04;;;;;;;6.13;1.80;;;;;;;-144.73;71.88;54362.53;4964899;28;20023;-73
2023/08/16 10:48:35;;;;;;;8.82;2.05;;;;;;;-144.73;70.01;54352.28;4966252;28;20023;-73
2023/08/16 10:51:07;;;;;;;7.90;2.03;;;;;;;-144.73;66.73;54284.56;4965751;28;20269;-74
2023/08/16 10:53:37;;;;;;;8.40;2.72;;;;;;;-144.73;68.27;54358.44;4977378;28;20034;-74
2023/08/16 10:56:07;;;;;;;6.28;1.90;;;;;;;-144.73;68.01;54321.50;4972111;28;20077;-74
2023/08/16 10:58:43;;;;;;;7.32;1.85;;;;;;;-144.73;67.40;54333.81;4981741;28;20045;-74
2023/08/16 11:01:09;;;;;;;8.88;1.70;;;;;;;-144.73;69.52;54288.66;4963412;28;20031;-74